createdAt,value
2022-10-26T00:02:07.782Z,13.90
2022-10-26T00:04:38.815Z,12.63
2022-10-26T00:07:15.633Z,14.73
2022-10-26T00:09:46.272Z,13.57
2022-10-26T00:12:15.703Z,14.57
2022-10-26T00:14:49.329Z,13.80
2022-10-26T00:17:20.757Z,14.15
2022-10-26T00:19:49.431Z,13.30
2022-10-26T00:22:18.214Z,12.57
2022-10-26T00:24:48.203Z,13.32
2022-10-26T00:27:17.317Z,13.02
2022-10-26T00:29:47.751Z,13.50
2022-10-26T00:32:16.278Z,13.90
2022-10-26T00:34:44.896Z,13.98
2022-10-26T00:37:13.607Z,13.48
2022-10-26T00:39:42.846Z,12.35
2022-10-26T00:42:16.894Z,12.27
2022-10-26T00:45:09.244Z,11.85
2022-10-26T00:47:44.710Z,11.57
2022-10-26T00:52:47.227Z,11.80
2022-10-26T00:55:21.248Z,12.05
2022-10-26T00:57:55.143Z,11.52
2022-10-26T01:00:34.387Z,11.75
2022-10-26T01:03:08.148Z,11.52
2022-10-26T01:05:43.050Z,10.98
2022-10-26T01:08:13.188Z,11.18
2022-10-26T01:10:44.005Z,11.25
2022-10-26T01:13:15.572Z,10.98
2022-10-26T01:16:00.363Z,10.25
2022-10-26T01:18:40.998Z,10.43
2022-10-26T01:21:55.872Z,9.80
2022-10-26T01:25:07.577Z,9.80
2022-10-26T01:27:41.250Z,9.52
2022-10-26T01:30:36.440Z,9.43
2022-10-26T01:36:12.739Z,8.27
2022-10-26T01:38:55.998Z,8.43
2022-10-26T01:41:32.636Z,8.52
2022-10-26T01:44:06.657Z,9.07
2022-10-26T01:46:42.715Z,8.10
2022-10-26T01:49:15.652Z,8.57
2022-10-26T01:51:50.608Z,9.10
2022-10-26T01:54:19.627Z,7.72
2022-10-26T01:56:53.121Z,8.95
2022-10-26T01:59:36.448Z,7.60
2022-10-26T02:02:50.551Z,8.18
2022-10-26T02:05:33.557Z,8.35
2022-10-26T02:08:23.797Z,7.80
2022-10-26T02:11:15.204Z,7.68
2022-10-26T02:13:49.625Z,8.13
2022-10-26T02:19:05.074Z,7.57
2022-10-26T02:21:40.381Z,8.13
2022-10-26T02:24:13.881Z,7.88
2022-10-26T02:26:47.095Z,7.93
2022-10-26T02:29:21.167Z,8.40
2022-10-26T02:31:53.036Z,8.93
2022-10-26T02:34:29.095Z,8.13
2022-10-26T02:37:02.609Z,8.13
2022-10-26T02:39:34.745Z,8.80
2022-10-26T02:42:07.014Z,8.43
2022-10-26T02:44:44.728Z,7.78
2022-10-26T02:47:15.365Z,8.40
2022-10-26T02:49:51.930Z,8.38
2022-10-26T02:52:30.017Z,9.15
2022-10-26T02:55:06.852Z,8.68
2022-10-26T02:57:40.517Z,8.35
2022-10-26T03:00:12.407Z,8.45
2022-10-26T03:02:43.519Z,8.05
2022-10-26T03:05:22.423Z,8.55
2022-10-26T03:07:51.398Z,8.48
2022-10-26T03:10:20.731Z,7.97
2022-10-26T03:12:49.263Z,8.38
2022-10-26T03:15:18.115Z,7.20
2022-10-26T03:17:46.998Z,8.63
2022-10-26T03:20:19.991Z,8.38
2022-10-26T03:22:52.763Z,7.35
2022-10-26T03:25:24.219Z,7.97
2022-10-26T03:27:59.534Z,8.27
2022-10-26T03:33:00.679Z,8.38
2022-10-26T03:35:30.976Z,8.05
2022-10-26T03:37:59.483Z,8.23
2022-10-26T03:40:28.691Z,8.05
2022-10-26T03:42:57.172Z,8.35
2022-10-26T03:45:25.985Z,7.80
2022-10-26T03:47:54.973Z,7.70
2022-10-26T03:50:24.867Z,8.65
2022-10-26T03:52:56.514Z,8.48
2022-10-26T03:55:26.185Z,7.93
2022-10-26T03:57:54.791Z,7.65
2022-10-26T04:00:25.034Z,7.75
2022-10-26T04:02:59.547Z,7.38
2022-10-26T04:05:31.200Z,7.90
2022-10-26T04:08:04.418Z,7.57
2022-10-26T04:10:34.152Z,7.70
2022-10-26T04:13:02.826Z,7.03
2022-10-26T04:15:36.199Z,7.88
2022-10-26T04:18:05.627Z,6.85
2022-10-26T04:20:39.282Z,6.80
2022-10-26T04:23:14.204Z,6.75
2022-10-26T04:25:46.863Z,6.75
2022-10-26T04:28:20.384Z,6.68
2022-10-26T04:30:50.086Z,6.63
2022-10-26T04:33:18.651Z,6.40
2022-10-26T04:35:48.187Z,6.07
2022-10-26T04:38:18.124Z,6.00
2022-10-26T04:40:47.349Z,6.80
2022-10-26T04:43:16.300Z,7.00
2022-10-26T04:45:47.664Z,6.85
2022-10-26T04:48:16.170Z,5.90
2022-10-26T04:50:44.614Z,6.00
2022-10-26T04:53:13.094Z,6.15
2022-10-26T04:55:47.714Z,6.20
2022-10-26T04:58:17.302Z,6.18
2022-10-26T05:00:47.223Z,5.55
2022-10-26T05:03:16.025Z,6.32
2022-10-26T05:05:44.765Z,5.47
2022-10-26T05:08:14.602Z,5.50
2022-10-26T05:10:53.603Z,6.25
2022-10-26T05:13:23.336Z,5.75
2022-10-26T05:15:54.633Z,7.15
2022-10-26T05:18:27.186Z,5.70
2022-10-26T05:20:56.838Z,6.05
2022-10-26T05:23:26.091Z,7.28
2022-10-26T05:25:57.439Z,5.72
2022-10-26T05:28:29.093Z,5.50
2022-10-26T05:31:00.760Z,5.43
2022-10-26T05:33:29.626Z,5.60
2022-10-26T05:35:58.448Z,6.10
2022-10-26T05:38:27.736Z,5.75
2022-10-26T05:40:59.502Z,5.97
2022-10-26T05:43:28.699Z,5.38
2022-10-26T05:46:05.222Z,5.93
2022-10-26T05:48:34.784Z,6.63
2022-10-26T05:51:06.825Z,6.45
2022-10-26T05:53:35.920Z,6.30
2022-10-26T05:56:19.142Z,5.85
2022-10-26T05:58:53.032Z,6.57
2022-10-26T06:01:33.177Z,6.10
2022-10-26T06:04:20.670Z,7.10
2022-10-26T06:06:55.347Z,6.50
2022-10-26T06:09:28.987Z,6.97
2022-10-26T06:12:02.034Z,7.35
2022-10-26T06:14:32.152Z,6.88
2022-10-26T06:17:24.153Z,6.95
2022-10-26T06:20:18.440Z,6.82
2022-10-26T06:23:05.102Z,6.90
2022-10-26T06:25:48.494Z,6.45
2022-10-26T06:28:35.330Z,7.82
2022-10-26T06:31:04.081Z,8.57
2022-10-26T06:33:33.132Z,7.07
2022-10-26T06:36:20.120Z,7.18
2022-10-26T06:38:50.777Z,6.85
2022-10-26T06:41:23.962Z,6.85
2022-10-26T06:43:55.208Z,7.70
2022-10-26T06:49:28.106Z,6.70
2022-10-26T06:52:03.289Z,6.57
2022-10-26T06:54:51.336Z,6.85
2022-10-26T06:57:26.055Z,6.13
2022-10-26T07:00:03.407Z,6.82
2022-10-26T07:02:32.949Z,6.43
2022-10-26T07:05:02.007Z,6.43
2022-10-26T07:07:42.632Z,6.00
2022-10-26T07:10:12.783Z,6.65
2022-10-26T07:12:42.050Z,6.43
2022-10-26T07:15:14.547Z,6.60
2022-10-26T07:17:46.459Z,6.60
2022-10-26T07:20:16.025Z,6.85
2022-10-26T07:22:45.640Z,6.75
2022-10-26T07:25:14.860Z,6.18
2022-10-26T07:27:43.708Z,6.18
2022-10-26T07:30:15.076Z,6.47
2022-10-26T07:32:43.826Z,6.70
2022-10-26T07:35:14.657Z,6.13
2022-10-26T07:37:43.080Z,6.35
2022-10-26T07:40:13.281Z,6.10
2022-10-26T07:42:44.299Z,6.43
2022-10-26T07:45:18.204Z,6.00
2022-10-26T07:47:47.733Z,5.32
2022-10-26T07:50:24.553Z,6.15
2022-10-26T07:52:54.940Z,5.88
2022-10-26T07:55:27.040Z,5.57
2022-10-26T07:57:57.405Z,5.90
2022-10-26T08:00:29.812Z,5.20
2022-10-26T08:03:00.597Z,4.88
2022-10-26T08:08:00.704Z,5.15
2022-10-26T08:10:32.367Z,4.75
2022-10-26T08:13:01.920Z,5.05
2022-10-26T08:15:32.946Z,5.10
2022-10-26T08:18:01.698Z,4.40
2022-10-26T08:20:30.346Z,4.40
2022-10-26T08:23:00.215Z,4.50
2022-10-26T08:25:32.051Z,4.53
2022-10-26T08:28:04.278Z,4.35
2022-10-26T08:30:38.561Z,4.07
2022-10-26T08:33:09.467Z,4.28
2022-10-26T08:35:38.168Z,4.03
2022-10-26T08:38:07.885Z,3.92
2022-10-26T08:40:43.815Z,4.45
2022-10-26T08:43:23.422Z,4.97
2022-10-26T08:46:02.023Z,4.30
2022-10-26T08:48:37.766Z,4.25
2022-10-26T08:51:14.632Z,5.05
2022-10-26T08:53:49.667Z,4.32
2022-10-26T08:56:23.838Z,3.97
2022-10-26T08:58:58.794Z,4.28
2022-10-26T09:01:32.164Z,4.70
2022-10-26T09:04:04.239Z,4.30
2022-10-26T09:06:41.320Z,3.72
2022-10-26T09:09:18.638Z,3.53
2022-10-26T09:12:01.177Z,3.55
2022-10-26T09:14:43.660Z,3.47
2022-10-26T09:17:25.646Z,2.85
2022-10-26T09:20:34.581Z,3.17
2022-10-26T09:23:11.927Z,4.05
2022-10-26T09:25:42.634Z,3.00
2022-10-26T09:28:18.734Z,3.33
2022-10-26T09:30:49.324Z,2.72
2022-10-26T09:33:24.627Z,2.88
2022-10-26T09:38:32.773Z,2.78
2022-10-26T09:41:06.767Z,2.80
2022-10-26T09:43:42.323Z,2.95
2022-10-26T09:46:20.853Z,3.00
2022-10-26T09:48:57.707Z,2.63
2022-10-26T09:51:27.212Z,2.72
2022-10-26T09:53:57.736Z,3.13
2022-10-26T09:56:29.859Z,3.08
2022-10-26T09:59:04.388Z,2.72
2022-10-26T10:01:41.610Z,2.87
2022-10-26T10:04:22.895Z,3.03
2022-10-26T10:06:54.115Z,2.67
2022-10-26T10:09:26.294Z,2.80
2022-10-26T10:12:02.615Z,2.90
2022-10-26T10:14:37.372Z,2.78
2022-10-26T10:17:18.597Z,3.05
2022-10-26T10:22:48.943Z,2.53
2022-10-26T10:25:33.484Z,2.90
2022-10-26T10:28:05.079Z,2.50
2022-10-26T10:30:37.307Z,2.97
2022-10-26T10:33:32.983Z,3.03
2022-10-26T10:36:03.598Z,3.17
2022-10-26T10:38:39.381Z,2.83
2022-10-26T10:41:21.575Z,3.38
2022-10-26T10:43:59.016Z,2.75
2022-10-26T10:46:31.833Z,2.80
2022-10-26T10:49:06.653Z,3.30
2022-10-26T10:51:43.470Z,2.78
2022-10-26T10:54:24.803Z,3.42
2022-10-26T10:56:59.494Z,3.22
2022-10-26T11:00:06.552Z,3.35
2022-10-26T11:03:11.564Z,2.75
2022-10-26T11:06:19.170Z,3.25
2022-10-26T11:11:48.538Z,4.30
2022-10-26T11:14:25.798Z,3.72
2022-10-26T11:17:07.037Z,3.80
2022-10-26T11:19:48.135Z,4.30
2022-10-26T11:22:35.760Z,4.45
2022-10-26T11:25:19.751Z,3.72
2022-10-26T11:27:54.239Z,4.32
2022-10-26T11:30:31.694Z,4.00
2022-10-26T11:33:11.967Z,3.88
2022-10-26T11:35:57.432Z,4.47
2022-10-26T11:38:46.279Z,3.72
2022-10-26T11:41:46.270Z,4.13
2022-10-26T11:44:25.333Z,3.80
2022-10-26T11:47:01.334Z,4.43
2022-10-26T11:49:41.236Z,3.90
2022-10-26T11:52:40.547Z,2.97
2022-10-26T11:55:14.870Z,3.33
2022-10-26T11:57:47.085Z,3.60
2022-10-26T12:00:21.709Z,3.90
2022-10-26T12:02:57.302Z,3.03
2022-10-26T12:05:45.858Z,4.75
2022-10-26T12:08:21.709Z,4.07
2022-10-26T12:10:57.816Z,3.53
2022-10-26T12:13:36.749Z,4.13
2022-10-26T12:19:16.483Z,4.30
2022-10-26T12:21:45.820Z,3.92
2022-10-26T12:24:34.306Z,3.72
2022-10-26T12:27:05.916Z,3.33
2022-10-26T12:29:49.758Z,3.28
2022-10-26T12:32:55.162Z,4.20
2022-10-26T12:35:45.341Z,3.90
2022-10-26T12:39:01.135Z,4.88
2022-10-26T12:44:39.975Z,3.35
2022-10-26T12:47:10.154Z,3.00
2022-10-26T12:50:03.126Z,3.30
2022-10-26T12:52:59.121Z,3.03
2022-10-26T12:56:34.236Z,3.00
2022-10-26T12:59:42.297Z,2.90
2022-10-26T13:06:21.014Z,2.80
2022-10-26T13:08:58.576Z,3.08
2022-10-26T13:11:33.980Z,2.63
2022-10-26T13:14:06.609Z,3.17
2022-10-26T13:16:36.334Z,3.03
2022-10-26T13:19:06.559Z,2.85
2022-10-26T13:21:49.182Z,3.80
2022-10-26T13:24:19.283Z,3.55
2022-10-26T13:27:43.779Z,2.90
2022-10-26T13:30:45.473Z,2.92
2022-10-26T13:33:40.485Z,2.70
2022-10-26T13:36:32.163Z,2.10
2022-10-26T13:39:08.515Z,2.35
2022-10-26T13:41:48.710Z,2.92
2022-10-26T13:44:26.110Z,2.50
2022-10-26T13:47:01.433Z,1.90
2022-10-26T13:49:36.906Z,2.05
2022-10-26T13:52:16.847Z,2.85
2022-10-26T13:54:51.775Z,2.85
2022-10-26T13:57:30.965Z,2.78
2022-10-26T14:00:04.153Z,2.45
2022-10-26T14:05:20.430Z,2.50
2022-10-26T14:07:56.935Z,2.08
2022-10-26T14:10:32.222Z,2.40
2022-10-26T14:13:02.848Z,2.67
2022-10-26T14:15:36.033Z,2.20
2022-10-26T14:18:06.561Z,2.63
2022-10-26T14:20:36.370Z,2.60
2022-10-26T14:23:27.984Z,2.30
2022-10-26T14:25:59.399Z,2.33
2022-10-26T14:28:33.654Z,2.58
2022-10-26T14:31:23.856Z,2.10
2022-10-26T14:33:55.635Z,2.65
2022-10-26T14:36:30.728Z,3.13
2022-10-26T14:39:10.245Z,2.50
2022-10-26T14:41:41.548Z,2.40
2022-10-26T14:44:20.625Z,2.33
2022-10-26T14:46:50.530Z,2.30
2022-10-26T14:49:24.194Z,2.50
2022-10-26T14:52:00.636Z,2.28
2022-10-26T14:54:32.188Z,3.15
2022-10-26T14:57:02.866Z,2.72
2022-10-26T14:59:33.250Z,4.55
2022-10-26T15:02:22.957Z,2.17
2022-10-26T15:05:02.526Z,2.10
2022-10-26T15:07:40.979Z,2.45
2022-10-26T15:10:50.056Z,1.73
2022-10-26T15:13:30.017Z,2.30
2022-10-26T15:16:09.629Z,2.33
2022-10-26T15:18:40.390Z,2.28
2022-10-26T15:21:24.699Z,2.40
2022-10-26T15:23:55.360Z,2.33
2022-10-26T15:26:26.419Z,2.60
2022-10-26T15:28:57.082Z,2.47
2022-10-26T15:31:35.766Z,1.95
2022-10-26T15:34:25.616Z,2.40
2022-10-26T15:36:55.842Z,2.30
2022-10-26T15:39:26.122Z,2.20
2022-10-26T15:41:58.404Z,2.38
2022-10-26T15:44:27.382Z,2.03
2022-10-26T15:47:08.647Z,2.33
2022-10-26T15:49:37.874Z,1.80
2022-10-26T15:52:11.169Z,2.20
2022-10-26T15:54:40.769Z,2.13
2022-10-26T15:57:17.954Z,2.80
2022-10-26T15:59:51.591Z,2.50
2022-10-26T16:02:20.543Z,2.20
2022-10-26T16:04:49.494Z,2.20
2022-10-26T16:07:19.185Z,2.38
2022-10-26T16:09:47.895Z,2.17
2022-10-26T16:12:18.195Z,2.22
2022-10-26T16:15:04.352Z,2.22
2022-10-26T16:17:35.143Z,2.30
2022-10-26T16:20:09.087Z,3.50
2022-10-26T16:22:40.767Z,2.83
2022-10-26T16:28:04.148Z,2.67
2022-10-26T16:30:38.411Z,2.80
2022-10-26T16:33:10.149Z,2.50
2022-10-26T16:41:37.851Z,2.58
2022-10-26T16:44:13.585Z,2.35
2022-10-26T16:46:43.910Z,2.63
2022-10-26T16:52:20.246Z,3.95
2022-10-26T16:54:49.158Z,3.30
2022-10-26T16:57:18.249Z,3.53
2022-10-26T16:59:49.503Z,3.25
2022-10-26T17:02:20.030Z,3.22
2022-10-26T17:04:51.714Z,2.80
2022-10-26T17:07:22.401Z,2.50
2022-10-26T17:09:51.959Z,2.70
2022-10-26T17:15:03.112Z,2.45
2022-10-26T17:17:32.094Z,2.70
2022-10-26T17:20:01.315Z,2.55
2022-10-26T17:22:31.101Z,2.50
2022-10-26T17:25:00.508Z,2.55
2022-10-26T17:27:29.779Z,2.83
2022-10-26T17:30:00.677Z,2.92
2022-10-26T17:32:33.010Z,3.15
2022-10-26T17:35:03.223Z,3.50
2022-10-26T17:37:39.626Z,3.08
2022-10-26T17:40:12.588Z,3.28
2022-10-26T17:42:47.494Z,3.17
2022-10-26T17:45:19.121Z,2.67
2022-10-26T17:47:48.411Z,3.22
2022-10-26T17:50:18.116Z,3.00
2022-10-26T17:52:47.704Z,3.17
2022-10-26T17:55:18.906Z,3.00
2022-10-26T17:57:49.975Z,3.67
2022-10-26T18:00:27.549Z,2.67
2022-10-26T18:03:00.871Z,3.97
2022-10-26T18:05:31.820Z,3.63
2022-10-26T18:08:04.071Z,3.28
2022-10-26T18:10:38.684Z,2.85
2022-10-26T18:13:08.173Z,3.50
2022-10-26T18:15:46.899Z,3.03
2022-10-26T18:18:21.362Z,2.97
2022-10-26T18:20:54.425Z,3.10
2022-10-26T18:23:25.799Z,3.60
2022-10-26T18:26:06.654Z,3.40
2022-10-26T18:28:37.978Z,3.05
2022-10-26T18:31:11.379Z,3.28
2022-10-26T18:33:40.466Z,3.50
2022-10-26T18:36:12.528Z,3.28
2022-10-26T18:38:45.677Z,3.00
2022-10-26T18:41:18.624Z,2.72
2022-10-26T18:43:51.089Z,3.30
2022-10-26T18:46:27.635Z,4.00
2022-10-26T18:48:58.726Z,3.60
2022-10-26T18:51:34.135Z,3.25
2022-10-26T18:54:04.679Z,3.42
2022-10-26T18:56:33.951Z,3.47
2022-10-26T18:59:03.147Z,3.45
2022-10-26T19:01:41.759Z,3.70
2022-10-26T19:04:17.001Z,3.33
2022-10-26T19:06:47.666Z,3.30
2022-10-26T19:09:17.763Z,3.80
2022-10-26T19:11:47.351Z,4.05
2022-10-26T19:14:16.067Z,3.67
2022-10-26T19:16:48.073Z,3.72
2022-10-26T19:19:20.803Z,3.45
2022-10-26T19:21:51.005Z,3.30
2022-10-26T19:24:23.288Z,4.18
2022-10-26T19:26:56.999Z,3.55
2022-10-26T19:29:26.095Z,3.67
2022-10-26T19:32:00.620Z,3.60
2022-10-26T19:34:30.332Z,3.92
2022-10-26T19:37:00.739Z,3.42
2022-10-26T19:39:31.564Z,3.38
2022-10-26T19:42:00.807Z,3.40
2022-10-26T19:44:30.694Z,3.97
2022-10-26T19:47:01.166Z,3.72
2022-10-26T19:49:33.125Z,3.47
2022-10-26T19:52:03.416Z,3.17
2022-10-26T19:54:33.947Z,3.92
2022-10-26T19:57:07.926Z,4.40
2022-10-26T19:59:41.032Z,3.63
2022-10-26T20:02:11.271Z,3.67
2022-10-26T20:04:40.882Z,3.58
2022-10-26T20:07:09.993Z,3.88
2022-10-26T20:09:39.290Z,3.75
2022-10-26T20:12:12.573Z,3.20
2022-10-26T20:14:42.673Z,2.95
2022-10-26T20:17:12.795Z,3.67
2022-10-26T20:19:46.102Z,3.17
2022-10-26T20:22:20.213Z,2.83
2022-10-26T20:24:58.014Z,3.35
2022-10-26T20:27:27.588Z,3.72
2022-10-26T20:30:00.854Z,3.20
2022-10-26T20:32:34.557Z,3.42
2022-10-26T20:37:56.012Z,3.08
2022-10-26T20:40:27.815Z,3.50
2022-10-26T20:42:57.703Z,3.00
2022-10-26T20:45:30.788Z,4.78
2022-10-26T20:48:04.247Z,4.00
2022-10-26T20:50:35.528Z,5.53
2022-10-26T20:53:12.744Z,5.30
2022-10-26T20:55:47.882Z,3.40
2022-10-26T21:01:01.989Z,3.10
2022-10-26T21:03:38.444Z,3.28
2022-10-26T21:08:46.872Z,3.15
2022-10-26T21:11:15.936Z,3.08
2022-10-26T21:13:47.923Z,4.05
2022-10-26T21:16:19.323Z,5.13
2022-10-26T21:18:52.569Z,3.95
2022-10-26T21:21:23.914Z,4.53
2022-10-26T21:23:58.340Z,4.38
2022-10-26T21:26:28.672Z,4.82
2022-10-26T21:28:58.092Z,4.80
2022-10-26T21:31:27.410Z,5.18
2022-10-26T21:34:03.630Z,4.40
2022-10-26T21:36:34.177Z,5.50
2022-10-26T21:39:05.623Z,4.60
2022-10-26T21:41:36.658Z,5.05
2022-10-26T21:44:23.144Z,5.35
2022-10-26T21:47:01.997Z,5.10
2022-10-26T21:49:34.296Z,5.97
2022-10-26T21:52:03.676Z,5.60
2022-10-26T21:54:39.050Z,5.88
2022-10-26T21:59:38.294Z,5.60
2022-10-26T22:02:09.222Z,5.88
2022-10-26T22:04:40.713Z,5.78
2022-10-26T22:07:12.208Z,6.35
2022-10-26T22:10:07.552Z,5.82
2022-10-26T22:12:38.912Z,6.40
2022-10-26T22:15:09.623Z,6.45
2022-10-26T22:17:44.278Z,9.05
2022-10-26T22:20:17.744Z,8.40
2022-10-26T22:22:48.500Z,6.50
2022-10-26T22:25:20.343Z,7.10
2022-10-26T22:27:50.559Z,6.80
2022-10-26T22:30:19.971Z,7.30
2022-10-26T22:32:51.447Z,6.78
2022-10-26T22:35:29.569Z,6.93
2022-10-26T22:38:01.224Z,7.75
2022-10-26T22:40:31.497Z,6.82
2022-10-26T22:43:01.616Z,7.25
2022-10-26T22:45:35.795Z,7.60
2022-10-26T22:50:47.012Z,7.00
2022-10-26T23:02:02.705Z,6.97
2022-10-26T23:07:50.997Z,6.10
2022-10-26T23:13:25.758Z,5.20
2022-10-26T23:16:08.243Z,6.40
2022-10-26T23:21:53.052Z,5.45
2022-10-26T23:24:30.659Z,5.88
2022-10-26T23:27:18.376Z,5.47
2022-10-26T23:29:50.307Z,5.35
2022-10-26T23:35:24.993Z,6.07
2022-10-26T23:38:02.623Z,6.40
2022-10-26T23:40:45.846Z,6.25
2022-10-26T23:43:36.721Z,5.72
